sensor_id;sensor_type;location;lat;lon;timestamp;P1;durP1;ratioP1;P2;durP2;ratioP2
70908;SDS011;58554;52.006;5.926;2024-03-02T00:01:24;5.35;;;1.67;;
70908;SDS011;58554;52.006;5.926;2024-03-02T00:03:50;3.00;;;1.70;;
70908;SDS011;58554;52.006;5.926;2024-03-02T00:06:18;3.88;;;1.90;;
70908;SDS011;58554;52.006;5.926;2024-03-02T00:08:46;3.75;;;2.00;;
70908;SDS011;58554;52.006;5.926;2024-03-02T00:11:15;4.13;;;2.30;;
70908;SDS011;58554;52.006;5.926;2024-03-02T00:13:42;2.97;;;1.65;;
70908;SDS011;58554;52.006;5.926;2024-03-02T00:16:09;3.27;;;1.83;;
70908;SDS011;58554;52.006;5.926;2024-03-02T00:18:36;2.97;;;1.83;;
70908;SDS011;58554;52.006;5.926;2024-03-02T00:21:03;3.73;;;1.70;;
70908;SDS011;58554;52.006;5.926;2024-03-02T00:23:33;3.90;;;2.00;;
70908;SDS011;58554;52.006;5.926;2024-03-02T00:26:00;3.97;;;1.73;;
70908;SDS011;58554;52.006;5.926;2024-03-02T00:28:31;3.40;;;2.20;;
70908;SDS011;58554;52.006;5.926;2024-03-02T00:31:02;4.03;;;2.17;;
70908;SDS011;58554;52.006;5.926;2024-03-02T00:33:31;2.93;;;1.77;;
70908;SDS011;58554;52.006;5.926;2024-03-02T00:36:00;4.50;;;2.00;;
70908;SDS011;58554;52.006;5.926;2024-03-02T00:38:27;5.13;;;1.92;;
70908;SDS011;58554;52.006;5.926;2024-03-02T00:40:56;4.53;;;2.10;;
70908;SDS011;58554;52.006;5.926;2024-03-02T00:43:43;3.15;;;1.92;;
70908;SDS011;58554;52.006;5.926;2024-03-02T00:46:16;3.87;;;2.00;;
70908;SDS011;58554;52.006;5.926;2024-03-02T00:48:47;3.37;;;1.60;;
70908;SDS011;58554;52.006;5.926;2024-03-02T00:51:18;3.27;;;1.53;;
70908;SDS011;58554;52.006;5.926;2024-03-02T00:53:46;3.80;;;1.90;;
70908;SDS011;58554;52.006;5.926;2024-03-02T00:56:13;3.50;;;1.90;;
70908;SDS011;58554;52.006;5.926;2024-03-02T00:58:40;3.60;;;1.90;;
70908;SDS011;58554;52.006;5.926;2024-03-02T01:01:09;2.67;;;1.60;;
70908;SDS011;58554;52.006;5.926;2024-03-02T01:03:36;3.97;;;1.70;;
70908;SDS011;58554;52.006;5.926;2024-03-02T01:06:02;3.30;;;2.07;;
70908;SDS011;58554;52.006;5.926;2024-03-02T01:08:30;2.80;;;1.70;;
70908;SDS011;58554;52.006;5.926;2024-03-02T01:10:56;3.00;;;1.70;;
70908;SDS011;58554;52.006;5.926;2024-03-02T01:13:23;3.67;;;2.05;;
70908;SDS011;58554;52.006;5.926;2024-03-02T01:15:50;2.97;;;1.63;;
70908;SDS011;58554;52.006;5.926;2024-03-02T01:18:19;3.20;;;1.67;;
70908;SDS011;58554;52.006;5.926;2024-03-02T01:20:46;3.80;;;1.90;;
70908;SDS011;58554;52.006;5.926;2024-03-02T01:23:12;2.88;;;1.52;;
70908;SDS011;58554;52.006;5.926;2024-03-02T01:25:39;3.23;;;1.83;;
70908;SDS011;58554;52.006;5.926;2024-03-02T01:28:05;2.87;;;1.70;;
70908;SDS011;58554;52.006;5.926;2024-03-02T01:30:32;3.70;;;1.73;;
70908;SDS011;58554;52.006;5.926;2024-03-02T01:32:58;4.30;;;1.97;;
70908;SDS011;58554;52.006;5.926;2024-03-02T01:35:27;6.40;;;1.73;;
70908;SDS011;58554;52.006;5.926;2024-03-02T01:37:54;3.47;;;1.80;;
70908;SDS011;58554;52.006;5.926;2024-03-02T01:40:20;4.70;;;1.77;;
70908;SDS011;58554;52.006;5.926;2024-03-02T01:42:47;2.93;;;1.50;;
70908;SDS011;58554;52.006;5.926;2024-03-02T01:45:14;3.95;;;1.70;;
70908;SDS011;58554;52.006;5.926;2024-03-02T01:47:40;3.30;;;1.50;;
70908;SDS011;58554;52.006;5.926;2024-03-02T01:50:07;2.90;;;1.23;;
70908;SDS011;58554;52.006;5.926;2024-03-02T01:52:38;1.87;;;1.23;;
70908;SDS011;58554;52.006;5.926;2024-03-02T01:55:05;2.63;;;1.20;;
70908;SDS011;58554;52.006;5.926;2024-03-02T01:57:33;2.43;;;1.10;;
70908;SDS011;58554;52.006;5.926;2024-03-02T02:00:00;3.63;;;1.33;;
70908;SDS011;58554;52.006;5.926;2024-03-02T02:02:27;2.20;;;1.20;;
70908;SDS011;58554;52.006;5.926;2024-03-02T02:04:54;2.40;;;1.10;;
70908;SDS011;58554;52.006;5.926;2024-03-02T02:07:20;2.03;;;1.00;;
70908;SDS011;58554;52.006;5.926;2024-03-02T02:09:49;3.88;;;0.82;;
70908;SDS011;58554;52.006;5.926;2024-03-02T02:12:16;2.10;;;0.90;;
70908;SDS011;58554;52.006;5.926;2024-03-02T02:14:46;1.85;;;0.70;;
70908;SDS011;58554;52.006;5.926;2024-03-02T02:17:13;1.90;;;0.80;;
70908;SDS011;58554;52.006;5.926;2024-03-02T02:19:40;1.40;;;0.82;;
70908;SDS011;58554;52.006;5.926;2024-03-02T02:22:09;1.57;;;0.80;;
70908;SDS011;58554;52.006;5.926;2024-03-02T02:24:36;1.40;;;0.80;;
70908;SDS011;58554;52.006;5.926;2024-03-02T02:27:06;1.40;;;0.70;;
70908;SDS011;58554;52.006;5.926;2024-03-02T02:29:32;2.47;;;0.80;;
70908;SDS011;58554;52.006;5.926;2024-03-02T02:31:59;1.67;;;0.90;;
70908;SDS011;58554;52.006;5.926;2024-03-02T02:34:26;1.88;;;0.98;;
70908;SDS011;58554;52.006;5.926;2024-03-02T02:36:52;1.70;;;0.80;;
70908;SDS011;58554;52.006;5.926;2024-03-02T02:39:22;1.42;;;0.70;;
70908;SDS011;58554;52.006;5.926;2024-03-02T02:41:49;2.93;;;0.70;;
70908;SDS011;58554;52.006;5.926;2024-03-02T02:44:16;1.35;;;0.88;;
70908;SDS011;58554;52.006;5.926;2024-03-02T02:46:42;1.40;;;0.80;;
70908;SDS011;58554;52.006;5.926;2024-03-02T02:49:09;2.00;;;0.80;;
70908;SDS011;58554;52.006;5.926;2024-03-02T02:51:35;1.50;;;0.60;;
70908;SDS011;58554;52.006;5.926;2024-03-02T02:54:01;1.60;;;0.80;;
70908;SDS011;58554;52.006;5.926;2024-03-02T02:56:31;1.87;;;0.80;;
70908;SDS011;58554;52.006;5.926;2024-03-02T02:58:57;1.60;;;0.80;;
70908;SDS011;58554;52.006;5.926;2024-03-02T03:01:24;3.00;;;0.67;;
70908;SDS011;58554;52.006;5.926;2024-03-02T03:03:50;1.50;;;0.90;;
70908;SDS011;58554;52.006;5.926;2024-03-02T03:06:17;1.30;;;0.77;;
70908;SDS011;58554;52.006;5.926;2024-03-02T03:08:43;1.27;;;0.73;;
70908;SDS011;58554;52.006;5.926;2024-03-02T03:11:10;2.45;;;0.70;;
70908;SDS011;58554;52.006;5.926;2024-03-02T03:13:39;2.07;;;0.80;;
70908;SDS011;58554;52.006;5.926;2024-03-02T03:16:05;1.85;;;0.80;;
70908;SDS011;58554;52.006;5.926;2024-03-02T03:18:32;3.13;;;0.80;;
70908;SDS011;58554;52.006;5.926;2024-03-02T03:20:58;1.88;;;0.75;;
70908;SDS011;58554;52.006;5.926;2024-03-02T03:23:25;1.53;;;0.70;;
70908;SDS011;58554;52.006;5.926;2024-03-02T03:25:52;1.30;;;0.60;;
70908;SDS011;58554;52.006;5.926;2024-03-02T03:28:18;1.57;;;0.87;;
70908;SDS011;58554;52.006;5.926;2024-03-02T03:30:47;1.38;;;0.80;;
70908;SDS011;58554;52.006;5.926;2024-03-02T03:33:14;1.53;;;0.83;;
70908;SDS011;58554;52.006;5.926;2024-03-02T03:35:40;1.23;;;0.60;;
70908;SDS011;58554;52.006;5.926;2024-03-02T03:38:07;1.30;;;0.57;;
70908;SDS011;58554;52.006;5.926;2024-03-02T03:40:33;1.33;;;0.70;;
70908;SDS011;58554;52.006;5.926;2024-03-02T03:43:00;1.60;;;0.70;;
70908;SDS011;58554;52.006;5.926;2024-03-02T03:45:26;1.50;;;0.63;;
70908;SDS011;58554;52.006;5.926;2024-03-02T03:47:55;1.30;;;0.70;;
70908;SDS011;58554;52.006;5.926;2024-03-02T03:50:22;1.47;;;0.60;;
70908;SDS011;58554;52.006;5.926;2024-03-02T03:52:48;1.70;;;0.70;;
70908;SDS011;58554;52.006;5.926;2024-03-02T03:55:15;1.53;;;1.00;;
70908;SDS011;58554;52.006;5.926;2024-03-02T03:57:41;1.30;;;0.75;;
70908;SDS011;58554;52.006;5.926;2024-03-02T04:00:08;1.10;;;0.60;;
70908;SDS011;58554;52.006;5.926;2024-03-02T04:02:35;1.55;;;0.80;;
70908;SDS011;58554;52.006;5.926;2024-03-02T04:05:05;1.53;;;0.80;;
70908;SDS011;58554;52.006;5.926;2024-03-02T04:07:32;1.25;;;0.63;;
70908;SDS011;58554;52.006;5.926;2024-03-02T04:09:58;1.30;;;0.80;;
70908;SDS011;58554;52.006;5.926;2024-03-02T04:12:25;1.47;;;0.77;;
70908;SDS011;58554;52.006;5.926;2024-03-02T04:14:51;1.57;;;0.90;;
70908;SDS011;58554;52.006;5.926;2024-03-02T04:17:18;1.40;;;0.68;;
70908;SDS011;58554;52.006;5.926;2024-03-02T04:19:44;1.40;;;0.70;;
70908;SDS011;58554;52.006;5.926;2024-03-02T04:22:13;1.27;;;0.77;;
70908;SDS011;58554;52.006;5.926;2024-03-02T04:24:40;1.47;;;0.80;;
70908;SDS011;58554;52.006;5.926;2024-03-02T04:27:06;1.45;;;0.80;;
70908;SDS011;58554;52.006;5.926;2024-03-02T04:29:33;2.57;;;1.10;;
70908;SDS011;58554;52.006;5.926;2024-03-02T04:32:00;1.60;;;0.93;;
70908;SDS011;58554;52.006;5.926;2024-03-02T04:34:26;1.40;;;0.87;;
70908;SDS011;58554;52.006;5.926;2024-03-02T04:36:52;1.53;;;0.90;;
70908;SDS011;58554;52.006;5.926;2024-03-02T04:39:21;1.57;;;0.93;;
70908;SDS011;58554;52.006;5.926;2024-03-02T04:41:48;1.80;;;1.02;;
70908;SDS011;58554;52.006;5.926;2024-03-02T04:44:14;2.37;;;0.90;;
70908;SDS011;58554;52.006;5.926;2024-03-02T04:46:41;1.60;;;0.90;;
70908;SDS011;58554;52.006;5.926;2024-03-02T04:49:07;2.17;;;0.90;;
70908;SDS011;58554;52.006;5.926;2024-03-02T04:51:34;1.30;;;0.88;;
70908;SDS011;58554;52.006;5.926;2024-03-02T04:54:00;1.43;;;0.63;;
70908;SDS011;58554;52.006;5.926;2024-03-02T04:56:32;1.23;;;0.70;;
70908;SDS011;58554;52.006;5.926;2024-03-02T04:58:59;1.20;;;0.70;;
70908;SDS011;58554;52.006;5.926;2024-03-02T05:01:25;3.35;;;0.82;;
70908;SDS011;58554;52.006;5.926;2024-03-02T05:03:52;1.60;;;0.90;;
70908;SDS011;58554;52.006;5.926;2024-03-02T05:06:18;1.80;;;1.00;;
70908;SDS011;58554;52.006;5.926;2024-03-02T05:08:45;1.87;;;0.80;;
70908;SDS011;58554;52.006;5.926;2024-03-02T05:11:23;1.57;;;0.93;;
70908;SDS011;58554;52.006;5.926;2024-03-02T05:13:52;2.00;;;1.10;;
70908;SDS011;58554;52.006;5.926;2024-03-02T05:16:19;1.67;;;0.70;;
70908;SDS011;58554;52.006;5.926;2024-03-02T05:18:46;2.23;;;1.13;;
70908;SDS011;58554;52.006;5.926;2024-03-02T05:21:12;3.30;;;1.10;;
70908;SDS011;58554;52.006;5.926;2024-03-02T05:23:39;1.50;;;0.80;;
70908;SDS011;58554;52.006;5.926;2024-03-02T05:26:05;1.60;;;0.90;;
70908;SDS011;58554;52.006;5.926;2024-03-02T05:28:32;2.10;;;1.00;;
70908;SDS011;58554;52.006;5.926;2024-03-02T05:31:01;1.58;;;0.80;;
70908;SDS011;58554;52.006;5.926;2024-03-02T05:33:28;1.80;;;0.90;;
70908;SDS011;58554;52.006;5.926;2024-03-02T05:35:54;1.93;;;0.90;;
70908;SDS011;58554;52.006;5.926;2024-03-02T05:38:21;2.05;;;1.00;;
70908;SDS011;58554;52.006;5.926;2024-03-02T05:40:47;1.60;;;1.00;;
70908;SDS011;58554;52.006;5.926;2024-03-02T05:43:14;1.38;;;0.70;;
70908;SDS011;58554;52.006;5.926;2024-03-02T05:45:40;1.30;;;0.90;;
70908;SDS011;58554;52.006;5.926;2024-03-02T05:48:10;1.53;;;0.87;;
70908;SDS011;58554;52.006;5.926;2024-03-02T05:50:36;1.63;;;0.80;;
70908;SDS011;58554;52.006;5.926;2024-03-02T05:53:03;1.33;;;0.80;;
70908;SDS011;58554;52.006;5.926;2024-03-02T05:55:30;2.17;;;0.90;;
70908;SDS011;58554;52.006;5.926;2024-03-02T05:57:56;2.40;;;1.10;;
70908;SDS011;58554;52.006;5.926;2024-03-02T06:00:22;1.80;;;0.88;;
70908;SDS011;58554;52.006;5.926;2024-03-02T06:02:49;1.83;;;0.97;;
70908;SDS011;58554;52.006;5.926;2024-03-02T06:05:18;1.40;;;0.73;;
70908;SDS011;58554;52.006;5.926;2024-03-02T06:07:44;1.57;;;1.00;;
70908;SDS011;58554;52.006;5.926;2024-03-02T06:10:11;2.17;;;0.90;;
70908;SDS011;58554;52.006;5.926;2024-03-02T06:12:38;1.63;;;1.07;;
70908;SDS011;58554;52.006;5.926;2024-03-02T06:15:04;1.90;;;1.00;;
70908;SDS011;58554;52.006;5.926;2024-03-02T06:17:32;1.50;;;0.90;;
70908;SDS011;58554;52.006;5.926;2024-03-02T06:20:00;1.45;;;0.90;;
70908;SDS011;58554;52.006;5.926;2024-03-02T06:22:29;1.27;;;0.70;;
70908;SDS011;58554;52.006;5.926;2024-03-02T06:24:56;2.40;;;1.00;;
70908;SDS011;58554;52.006;5.926;2024-03-02T06:27:22;2.73;;;0.70;;
70908;SDS011;58554;52.006;5.926;2024-03-02T06:29:49;2.50;;;0.87;;
70908;SDS011;58554;52.006;5.926;2024-03-02T06:32:15;1.48;;;0.88;;
70908;SDS011;58554;52.006;5.926;2024-03-02T06:34:42;2.53;;;0.90;;
70908;SDS011;58554;52.006;5.926;2024-03-02T06:37:08;1.50;;;0.80;;
70908;SDS011;58554;52.006;5.926;2024-03-02T06:39:37;1.30;;;0.90;;
70908;SDS011;58554;52.006;5.926;2024-03-02T06:42:04;1.65;;;0.80;;
70908;SDS011;58554;52.006;5.926;2024-03-02T06:44:30;1.57;;;0.80;;
70908;SDS011;58554;52.006;5.926;2024-03-02T06:46:57;1.90;;;1.00;;
70908;SDS011;58554;52.006;5.926;2024-03-02T06:49:23;1.83;;;1.00;;
70908;SDS011;58554;52.006;5.926;2024-03-02T06:51:50;1.53;;;0.80;;
70908;SDS011;58554;52.006;5.926;2024-03-02T06:54:16;1.70;;;0.80;;
70908;SDS011;58554;52.006;5.926;2024-03-02T06:56:45;1.50;;;0.83;;
70908;SDS011;58554;52.006;5.926;2024-03-02T06:59:12;2.83;;;0.90;;
70908;SDS011;58554;52.006;5.926;2024-03-02T07:01:38;2.17;;;0.80;;
70908;SDS011;58554;52.006;5.926;2024-03-02T07:04:05;1.63;;;0.90;;
70908;SDS011;58554;52.006;5.926;2024-03-02T07:06:31;1.53;;;0.90;;
70908;SDS011;58554;52.006;5.926;2024-03-02T07:08:58;1.57;;;0.70;;
70908;SDS011;58554;52.006;5.926;2024-03-02T07:11:24;2.13;;;0.90;;
70908;SDS011;58554;52.006;5.926;2024-03-02T07:13:53;1.77;;;0.80;;
70908;SDS011;58554;52.006;5.926;2024-03-02T07:16:19;4.60;;;1.30;;
70908;SDS011;58554;52.006;5.926;2024-03-02T07:18:46;1.43;;;0.73;;
70908;SDS011;58554;52.006;5.926;2024-03-02T07:21:12;1.60;;;0.93;;
70908;SDS011;58554;52.006;5.926;2024-03-02T07:23:39;1.53;;;0.87;;
70908;SDS011;58554;52.006;5.926;2024-03-02T07:26:05;1.65;;;1.05;;
70908;SDS011;58554;52.006;5.926;2024-03-02T07:28:32;2.83;;;1.13;;
70908;SDS011;58554;52.006;5.926;2024-03-02T07:31:01;1.85;;;1.10;;
70908;SDS011;58554;52.006;5.926;2024-03-02T07:33:32;2.10;;;1.03;;
70908;SDS011;58554;52.006;5.926;2024-03-02T07:36:01;1.83;;;0.98;;
70908;SDS011;58554;52.006;5.926;2024-03-02T07:38:29;1.93;;;1.00;;
70908;SDS011;58554;52.006;5.926;2024-03-02T07:40:56;1.55;;;1.10;;
70908;SDS011;58554;52.006;5.926;2024-03-02T07:43:23;1.73;;;0.80;;
70908;SDS011;58554;52.006;5.926;2024-03-02T07:45:49;2.33;;;1.00;;
70908;SDS011;58554;52.006;5.926;2024-03-02T07:48:19;4.47;;;1.00;;
70908;SDS011;58554;52.006;5.926;2024-03-02T07:50:45;2.40;;;0.97;;
70908;SDS011;58554;52.006;5.926;2024-03-02T07:53:12;3.33;;;1.03;;
70908;SDS011;58554;52.006;5.926;2024-03-02T07:55:38;1.70;;;0.77;;
70908;SDS011;58554;52.006;5.926;2024-03-02T07:58:05;2.53;;;1.00;;
70908;SDS011;58554;52.006;5.926;2024-03-02T08:00:32;2.13;;;0.90;;
70908;SDS011;58554;52.006;5.926;2024-03-02T08:02:59;2.40;;;1.00;;
70908;SDS011;58554;52.006;5.926;2024-03-02T08:05:29;3.03;;;0.90;;
70908;SDS011;58554;52.006;5.926;2024-03-02T08:07:56;1.90;;;1.10;;
70908;SDS011;58554;52.006;5.926;2024-03-02T08:10:22;2.70;;;1.03;;
70908;SDS011;58554;52.006;5.926;2024-03-02T08:12:49;3.23;;;1.10;;
70908;SDS011;58554;52.006;5.926;2024-03-02T08:15:15;2.17;;;1.00;;
70908;SDS011;58554;52.006;5.926;2024-03-02T08:17:41;2.17;;;0.90;;
70908;SDS011;58554;52.006;5.926;2024-03-02T08:20:09;3.43;;;0.87;;
70908;SDS011;58554;52.006;5.926;2024-03-02T08:22:39;2.05;;;1.00;;
70908;SDS011;58554;52.006;5.926;2024-03-02T08:25:07;2.10;;;1.10;;
70908;SDS011;58554;52.006;5.926;2024-03-02T08:27:34;1.92;;;1.00;;
70908;SDS011;58554;52.006;5.926;2024-03-02T08:30:00;4.80;;;1.40;;
70908;SDS011;58554;52.006;5.926;2024-03-02T08:32:27;1.65;;;0.90;;
70908;SDS011;58554;52.006;5.926;2024-03-02T08:34:53;2.07;;;1.07;;
70908;SDS011;58554;52.006;5.926;2024-03-02T08:37:20;1.90;;;1.10;;
70908;SDS011;58554;52.006;5.926;2024-03-02T08:39:49;2.33;;;1.10;;
70908;SDS011;58554;52.006;5.926;2024-03-02T08:42:16;1.92;;;1.00;;
70908;SDS011;58554;52.006;5.926;2024-03-02T08:44:42;2.53;;;0.87;;
70908;SDS011;58554;52.006;5.926;2024-03-02T08:47:09;3.60;;;1.00;;
70908;SDS011;58554;52.006;5.926;2024-03-02T08:49:36;3.27;;;1.20;;
70908;SDS011;58554;52.006;5.926;2024-03-02T08:52:02;3.55;;;1.00;;
70908;SDS011;58554;52.006;5.926;2024-03-02T08:54:29;2.73;;;1.10;;
70908;SDS011;58554;52.006;5.926;2024-03-02T08:56:58;3.13;;;0.90;;
70908;SDS011;58554;52.006;5.926;2024-03-02T08:59:25;3.43;;;0.97;;
70908;SDS011;58554;52.006;5.926;2024-03-02T09:01:52;2.13;;;1.10;;
70908;SDS011;58554;52.006;5.926;2024-03-02T09:04:19;1.90;;;0.98;;
70908;SDS011;58554;52.006;5.926;2024-03-02T09:06:45;4.53;;;1.00;;
70908;SDS011;58554;52.006;5.926;2024-03-02T09:09:12;2.50;;;1.20;;
70908;SDS011;58554;52.006;5.926;2024-03-02T09:11:38;2.83;;;0.93;;
70908;SDS011;58554;52.006;5.926;2024-03-02T09:14:07;1.83;;;0.80;;
70908;SDS011;58554;52.006;5.926;2024-03-02T09:16:34;1.70;;;0.95;;
70908;SDS011;58554;52.006;5.926;2024-03-02T09:19:00;2.37;;;1.00;;
70908;SDS011;58554;52.006;5.926;2024-03-02T09:21:27;3.50;;;0.90;;
70908;SDS011;58554;52.006;5.926;2024-03-02T09:23:53;1.57;;;0.80;;
70908;SDS011;58554;52.006;5.926;2024-03-02T09:26:20;3.33;;;1.10;;
70908;SDS011;58554;52.006;5.926;2024-03-02T09:28:46;1.93;;;0.73;;
70908;SDS011;58554;52.006;5.926;2024-03-02T09:31:15;3.20;;;1.10;;
70908;SDS011;58554;52.006;5.926;2024-03-02T09:33:42;2.60;;;1.00;;
70908;SDS011;58554;52.006;5.926;2024-03-02T09:36:16;3.50;;;1.10;;
70908;SDS011;58554;52.006;5.926;2024-03-02T09:38:43;2.30;;;0.87;;
70908;SDS011;58554;52.006;5.926;2024-03-02T09:41:09;3.40;;;1.00;;
70908;SDS011;58554;52.006;5.926;2024-03-02T09:43:37;1.70;;;0.80;;
70908;SDS011;58554;52.006;5.926;2024-03-02T09:46:04;2.63;;;0.90;;
70908;SDS011;58554;52.006;5.926;2024-03-02T09:48:33;2.90;;;0.80;;
70908;SDS011;58554;52.006;5.926;2024-03-02T09:51:00;1.80;;;1.05;;
70908;SDS011;58554;52.006;5.926;2024-03-02T09:53:27;1.43;;;0.70;;
70908;SDS011;58554;52.006;5.926;2024-03-02T09:55:58;2.50;;;1.10;;
70908;SDS011;58554;52.006;5.926;2024-03-02T09:58:26;2.37;;;1.10;;
70908;SDS011;58554;52.006;5.926;2024-03-02T10:00:52;2.33;;;0.85;;
70908;SDS011;58554;52.006;5.926;2024-03-02T10:03:19;2.73;;;1.20;;
70908;SDS011;58554;52.006;5.926;2024-03-02T10:05:48;1.60;;;0.97;;
70908;SDS011;58554;52.006;5.926;2024-03-02T10:08:14;1.93;;;0.87;;
70908;SDS011;58554;52.006;5.926;2024-03-02T10:10:41;1.50;;;0.80;;
70908;SDS011;58554;52.006;5.926;2024-03-02T10:13:08;4.57;;;1.30;;
70908;SDS011;58554;52.006;5.926;2024-03-02T10:15:36;2.03;;;1.00;;
70908;SDS011;58554;52.006;5.926;2024-03-02T10:18:05;1.65;;;0.68;;
70908;SDS011;58554;52.006;5.926;2024-03-02T10:20:36;2.20;;;1.10;;
70908;SDS011;58554;52.006;5.926;2024-03-02T10:23:13;3.05;;;1.20;;
70908;SDS011;58554;52.006;5.926;2024-03-02T10:25:41;4.60;;;1.13;;
70908;SDS011;58554;52.006;5.926;2024-03-02T10:28:09;2.00;;;0.73;;
70908;SDS011;58554;52.006;5.926;2024-03-02T10:30:36;2.43;;;0.80;;
70908;SDS011;58554;52.006;5.926;2024-03-02T10:33:02;3.40;;;1.10;;
70908;SDS011;58554;52.006;5.926;2024-03-02T10:35:32;2.67;;;1.00;;
70908;SDS011;58554;52.006;5.926;2024-03-02T10:37:59;4.67;;;0.97;;
70908;SDS011;58554;52.006;5.926;2024-03-02T10:40:29;3.70;;;0.90;;
70908;SDS011;58554;52.006;5.926;2024-03-02T10:42:56;1.70;;;1.00;;
70908;SDS011;58554;52.006;5.926;2024-03-02T10:45:25;3.63;;;0.90;;
70908;SDS011;58554;52.006;5.926;2024-03-02T10:47:51;2.97;;;1.07;;
70908;SDS011;58554;52.006;5.926;2024-03-02T10:50:18;2.30;;;0.80;;
70908;SDS011;58554;52.006;5.926;2024-03-02T10:52:45;1.73;;;1.00;;
70908;SDS011;58554;52.006;5.926;2024-03-02T10:55:12;2.43;;;0.90;;
70908;SDS011;58554;52.006;5.926;2024-03-02T10:57:45;3.93;;;0.90;;
70908;SDS011;58554;52.006;5.926;2024-03-02T11:00:18;2.90;;;1.03;;
70908;SDS011;58554;52.006;5.926;2024-03-02T11:02:46;1.85;;;0.88;;
70908;SDS011;58554;52.006;5.926;2024-03-02T11:05:19;2.53;;;1.10;;
70908;SDS011;58554;52.006;5.926;2024-03-02T11:07:53;2.40;;;0.87;;
70908;SDS011;58554;52.006;5.926;2024-03-02T11:10:28;2.53;;;1.08;;
70908;SDS011;58554;52.006;5.926;2024-03-02T11:13:04;3.00;;;1.10;;
70908;SDS011;58554;52.006;5.926;2024-03-02T11:15:35;1.80;;;0.80;;
70908;SDS011;58554;52.006;5.926;2024-03-02T11:18:02;3.10;;;1.10;;
70908;SDS011;58554;52.006;5.926;2024-03-02T11:20:32;2.50;;;1.00;;
70908;SDS011;58554;52.006;5.926;2024-03-02T11:23:04;2.42;;;1.23;;
70908;SDS011;58554;52.006;5.926;2024-03-02T11:25:32;2.97;;;1.10;;
70908;SDS011;58554;52.006;5.926;2024-03-02T11:27:59;3.77;;;1.20;;
70908;SDS011;58554;52.006;5.926;2024-03-02T11:33:15;3.33;;;1.00;;
70908;SDS011;58554;52.006;5.926;2024-03-02T11:35:52;2.63;;;1.10;;
70908;SDS011;58554;52.006;5.926;2024-03-02T11:38:19;1.63;;;1.10;;
70908;SDS011;58554;52.006;5.926;2024-03-02T11:40:46;2.85;;;0.90;;
70908;SDS011;58554;52.006;5.926;2024-03-02T11:43:15;2.27;;;1.10;;
70908;SDS011;58554;52.006;5.926;2024-03-02T11:45:43;2.85;;;1.05;;
70908;SDS011;58554;52.006;5.926;2024-03-02T11:48:10;3.03;;;1.03;;
70908;SDS011;58554;52.006;5.926;2024-03-02T11:50:41;2.80;;;1.35;;
70908;SDS011;58554;52.006;5.926;2024-03-02T11:53:12;2.73;;;0.90;;
70908;SDS011;58554;52.006;5.926;2024-03-02T11:55:38;2.63;;;1.00;;
70908;SDS011;58554;52.006;5.926;2024-03-02T11:58:06;2.40;;;1.00;;
70908;SDS011;58554;52.006;5.926;2024-03-02T12:00:35;2.40;;;1.00;;
70908;SDS011;58554;52.006;5.926;2024-03-02T12:03:02;3.87;;;1.00;;
70908;SDS011;58554;52.006;5.926;2024-03-02T12:05:31;3.00;;;1.10;;
70908;SDS011;58554;52.006;5.926;2024-03-02T12:07:59;1.30;;;0.70;;
70908;SDS011;58554;52.006;5.926;2024-03-02T12:10:28;1.63;;;1.00;;
70908;SDS011;58554;52.006;5.926;2024-03-02T12:12:58;1.50;;;0.73;;
70908;SDS011;58554;52.006;5.926;2024-03-02T12:15:25;2.00;;;0.90;;
70908;SDS011;58554;52.006;5.926;2024-03-02T12:17:57;1.73;;;0.90;;
70908;SDS011;58554;52.006;5.926;2024-03-02T12:20:26;1.73;;;0.90;;
70908;SDS011;58554;52.006;5.926;2024-03-02T12:22:55;2.37;;;0.80;;
70908;SDS011;58554;52.006;5.926;2024-03-02T12:25:24;1.75;;;1.00;;
70908;SDS011;58554;52.006;5.926;2024-03-02T12:27:53;2.83;;;1.00;;
70908;SDS011;58554;52.006;5.926;2024-03-02T12:30:22;1.97;;;0.80;;
70908;SDS011;58554;52.006;5.926;2024-03-02T12:32:49;1.90;;;0.93;;
70908;SDS011;58554;52.006;5.926;2024-03-02T12:35:19;2.07;;;0.90;;
70908;SDS011;58554;52.006;5.926;2024-03-02T12:37:46;3.53;;;0.73;;
70908;SDS011;58554;52.006;5.926;2024-03-02T12:40:15;2.27;;;1.00;;
70908;SDS011;58554;52.006;5.926;2024-03-02T12:42:44;2.63;;;0.80;;
70908;SDS011;58554;52.006;5.926;2024-03-02T12:45:12;2.97;;;0.90;;
70908;SDS011;58554;52.006;5.926;2024-03-02T12:47:40;1.92;;;0.93;;
70908;SDS011;58554;52.006;5.926;2024-03-02T12:50:08;1.90;;;1.03;;
70908;SDS011;58554;52.006;5.926;2024-03-02T12:52:38;2.00;;;1.02;;
70908;SDS011;58554;52.006;5.926;2024-03-02T12:55:05;1.60;;;0.70;;
70908;SDS011;58554;52.006;5.926;2024-03-02T12:57:32;3.08;;;0.90;;
70908;SDS011;58554;52.006;5.926;2024-03-02T13:00:00;1.60;;;0.90;;
70908;SDS011;58554;52.006;5.926;2024-03-02T13:02:28;1.90;;;1.00;;
70908;SDS011;58554;52.006;5.926;2024-03-02T13:04:57;2.80;;;0.97;;
70908;SDS011;58554;52.006;5.926;2024-03-02T13:07:24;2.15;;;1.17;;
70908;SDS011;58554;52.006;5.926;2024-03-02T13:09:54;2.43;;;1.20;;
70908;SDS011;58554;52.006;5.926;2024-03-02T13:12:22;2.37;;;1.20;;
70908;SDS011;58554;52.006;5.926;2024-03-02T13:14:51;2.57;;;1.20;;
70908;SDS011;58554;52.006;5.926;2024-03-02T13:17:18;2.63;;;1.13;;
70908;SDS011;58554;52.006;5.926;2024-03-02T13:19:51;3.40;;;1.50;;
70908;SDS011;58554;52.006;5.926;2024-03-02T13:22:19;2.77;;;1.40;;
70908;SDS011;58554;52.006;5.926;2024-03-02T13:24:46;3.50;;;1.65;;
70908;SDS011;58554;52.006;5.926;2024-03-02T13:27:15;2.53;;;1.50;;
70908;SDS011;58554;52.006;5.926;2024-03-02T13:29:41;3.67;;;1.73;;
70908;SDS011;58554;52.006;5.926;2024-03-02T13:32:08;3.63;;;1.70;;
70908;SDS011;58554;52.006;5.926;2024-03-02T13:34:34;2.75;;;1.35;;
70908;SDS011;58554;52.006;5.926;2024-03-02T13:37:01;3.70;;;1.60;;
70908;SDS011;58554;52.006;5.926;2024-03-02T13:39:27;4.25;;;1.30;;
70908;SDS011;58554;52.006;5.926;2024-03-02T13:41:54;2.50;;;1.30;;
70908;SDS011;58554;52.006;5.926;2024-03-02T13:44:23;2.90;;;1.50;;
70908;SDS011;58554;52.006;5.926;2024-03-02T13:46:49;2.80;;;1.53;;
70908;SDS011;58554;52.006;5.926;2024-03-02T13:49:16;3.03;;;1.20;;
70908;SDS011;58554;52.006;5.926;2024-03-02T13:51:42;3.50;;;1.30;;
70908;SDS011;58554;52.006;5.926;2024-03-02T13:54:09;2.27;;;1.17;;
70908;SDS011;58554;52.006;5.926;2024-03-02T13:56:35;4.13;;;1.33;;
70908;SDS011;58554;52.006;5.926;2024-03-02T13:59:02;3.93;;;1.33;;
70908;SDS011;58554;52.006;5.926;2024-03-02T14:01:31;2.00;;;1.08;;
70908;SDS011;58554;52.006;5.926;2024-03-02T14:03:57;6.73;;;1.20;;
70908;SDS011;58554;52.006;5.926;2024-03-02T14:06:24;4.70;;;1.20;;
70908;SDS011;58554;52.006;5.926;2024-03-02T14:08:51;2.57;;;1.10;;
70908;SDS011;58554;52.006;5.926;2024-03-02T14:11:17;2.67;;;1.20;;
70908;SDS011;58554;52.006;5.926;2024-03-02T14:13:44;2.03;;;1.00;;
70908;SDS011;58554;52.006;5.926;2024-03-02T14:16:11;4.67;;;1.10;;
70908;SDS011;58554;52.006;5.926;2024-03-02T14:18:40;2.70;;;0.80;;
70908;SDS011;58554;52.006;5.926;2024-03-02T14:21:07;2.40;;;0.90;;
70908;SDS011;58554;52.006;5.926;2024-03-02T14:23:33;3.17;;;1.10;;
70908;SDS011;58554;52.006;5.926;2024-03-02T14:26:00;2.13;;;1.03;;
70908;SDS011;58554;52.006;5.926;2024-03-02T14:28:26;2.70;;;1.00;;
70908;SDS011;58554;52.006;5.926;2024-03-02T14:30:53;2.73;;;0.90;;
70908;SDS011;58554;52.006;5.926;2024-03-02T14:33:19;3.17;;;0.88;;
70908;SDS011;58554;52.006;5.926;2024-03-02T14:35:49;3.03;;;1.07;;
70908;SDS011;58554;52.006;5.926;2024-03-02T14:38:15;1.70;;;1.00;;
70908;SDS011;58554;52.006;5.926;2024-03-02T14:40:42;4.17;;;1.10;;
70908;SDS011;58554;52.006;5.926;2024-03-02T14:43:08;2.42;;;1.00;;
70908;SDS011;58554;52.006;5.926;2024-03-02T14:45:35;2.07;;;1.10;;
70908;SDS011;58554;52.006;5.926;2024-03-02T14:48:01;3.70;;;1.20;;
70908;SDS011;58554;52.006;5.926;2024-03-02T14:50:29;3.00;;;1.30;;
70908;SDS011;58554;52.006;5.926;2024-03-02T14:52:58;3.43;;;1.23;;